OOCL Long Beach — VRYO4 — position and weather

sailwx.info

Track history (hours):
 
Tides and Currents Weather Stations Pressure Air Temp Water Temp Dewpoint Dewpoint Depression Visibility Wind Speed Wind Dir Waves Ship Positions

OOCL Long Beach

Last reported at 2014-Jul-21 15:10 UTC. Time now 2014-Jul-28 04:16 UTC.
Position N 35°45' W 125°52'.

Length 323 m; beam 42.8 m; draft 14.5 m.

Type: Cargo ship. MMSI: 477316000.

Date/timePositionNaut miles runAvg speedWind from/ knotsBaromVisibWave heightAir tempDewpointWater temp
2014-Jul-21 15:10N 35°45' W 125°52'1016.4
2014-Jul-21 14:33N 35°40' W 125°41'2216.3
2014-Jul-21 13:13N 35°30' W 125°17'2716.3
2014-Jul-21 11:31N 35°18' W 124°47'3216.3
2014-Jul-21 09:33N 35°03' W 124°12'1616.3
2014-Jul-21 08:33N 34°56' W 123°54'1616.1
2014-Jul-21 07:33N 34°49' W 123°37'1616.2
2014-Jul-21 06:34N 34°41' W 123°19'1616.1
2014-Jul-21 05:33N 34°34' W 123°02'1616.1
2014-Jul-21 04:32N 34°27' W 122°44'1616.1
2014-Jul-21 03:33N 34°19' W 122°27'1615.9
2014-Jul-21 02:33N 34°12' W 122°10'1615.5
2014-Jul-21 01:31N 34°05' W 121°53'1715.8
2014-Jul-21 00:28N 33°57' W 121°35'3716.1
2014-Jul-20 22:10N 33°41' W 120°55'5414.9
2014-Jul-20 18:32N 33°30' W 119°51'1210.4
2014-Jul-20 17:24N 33°32' W 119°37'910.7
2014-Jul-20 16:33N 33°34' W 119°27'1410.0
2014-Jul-20 15:07N 33°37' W 119°10'610.7
2014-Jul-20 14:33N 33°38' W 119°03'1110.8
2014-Jul-20 13:33N 33°38' W 118°50'3110.5
2014-Jul-20 10:33N 33°40' W 118°12'5 0.3
2014-Jul-19 17:32N 33°45' W 118°13'0 0.0
2014-Jul-19 16:14N 33°45' W 118°13'0 0.0
2014-Jul-19 15:29N 33°45' W 118°13'0 0.0
2014-Jul-19 14:32N 33°45' W 118°13'0 0.0
2014-Jul-19 13:32N 33°45' W 118°13'0 0.0
2014-Jul-19 12:32N 33°45' W 118°13'0 0.0
2014-Jul-19 11:32N 33°45' W 118°13'0 0.0
2014-Jul-19 10:32N 33°45' W 118°13'0 0.0
2014-Jul-19 09:23N 33°45' W 118°13'0 0.0
2014-Jul-19 08:26N 33°45' W 118°13'0 0.0
2014-Jul-19 06:32N 33°45' W 118°13'0 0.0
2014-Jul-19 05:32N 33°45' W 118°13'0 0.0
2014-Jul-19 04:32N 33°45' W 118°13'0 0.0
2014-Jul-19 03:20N 33°45' W 118°13'0 0.0
2014-Jul-19 02:32N 33°45' W 118°13'0 0.0
2014-Jul-19 00:14N 33°45' W 118°13'0 0.0
2014-Jul-18 23:32N 33°45' W 118°13'0 0.0
2014-Jul-18 19:32N 33°45' W 118°13'0 0.0
2014-Jul-18 04:26N 33°45' W 118°13'0 0.0
2014-Jul-18 03:32N 33°45' W 118°13'0 0.0
2014-Jul-18 02:32N 33°45' W 118°13'0 0.0
2014-Jul-17 05:29N 33°45' W 118°13'0 0.0
2014-Jul-17 04:11N 33°45' W 118°13'0 0.0
2014-Jul-17 03:32N 33°45' W 118°13'0 0.0
2014-Jul-17 02:26N 33°45' W 118°13'0 0.0
2014-Jul-17 01:29N 33°45' W 118°13'0 0.0
2014-Jul-17 00:20N 33°45' W 118°13'0 0.0
2014-Jul-16 23:23N 33°45' W 118°13'0 0.0
2014-Jul-16 14:08N 33°45' W 118°13'0 0.0
2014-Jul-16 13:17N 33°45' W 118°13'0 0.6
2014-Jul-16 12:33N 33°45' W 118°13'9 7.9
2014-Jul-16 11:28N 33°36' W 118°15'910.0
2014-Jul-16 10:33N 33°37' W 118°26'10 9.8
2014-Jul-16 09:32N 33°37' W 118°38'10 9.9
2014-Jul-16 08:33N 33°38' W 118°49'1010.0
2014-Jul-16 07:33N 33°38' W 119°01'1110.4
2014-Jul-16 06:28N 33°36' W 119°14'910.1
2014-Jul-16 05:33N 33°34' W 119°25'10 9.6
2014-Jul-16 04:33N 33°33' W 119°37'1110.2
2014-Jul-16 03:26N 33°31' W 119°50'910.1
2014-Jul-16 02:33N 33°29' W 120°01'1412.7
2014-Jul-16 01:26N 33°30' W 120°18'3611.5
2014-Jul-15 22:17N 33°42' W 120°59'3612.8
2014-Jul-15 19:27N 33°59' W 121°38'1613.1
2014-Jul-15 18:14N 34°05' W 121°55'913.2
2014-Jul-15 17:33N 34°09' W 122°05'1413.3
2014-Jul-15 16:31N 34°16' W 122°19'1313.6
2014-Jul-15 15:33N 34°22' W 122°33'1513.1
2014-Jul-15 14:24N 34°29' W 122°50'1213.5
2014-Jul-15 13:30N 34°34' W 123°03'2714.1
2014-Jul-15 11:33N 34°47' W 123°33'1514.1
2014-Jul-15 10:29N 34°53' W 123°49'1313.8
2014-Jul-15 09:33N 34°59' W 124°03'2713.8
2014-Jul-15 07:33N 35°12' W 124°33'2713.7
2014-Jul-15 05:33N 35°24' W 125°03'1413.7
2014-Jul-15 04:33N 35°30' W 125°18'1414.0
2014-Jul-15 03:33N 35°37' W 125°33'1413.9
2014-Jul-15 02:33N 35°43' W 125°48'1614.0
2014-Jul-15 01:25N 35°50' W 126°06'1413.7
2014-Jul-15 00:22N 35°56' W 126°22'1513.8
2014-Jul-14 23:19N 36°03' W 126°38'1113.9
2014-Jul-14 22:33N 36°09' W 126°49'1713.9
2014-Jul-14 21:18N 36°17' W 127°08'1013.9
2014-Jul-14 20:34N 36°23' W 127°19'2812.8
2014-Jul-14 18:20N 36°36' W 127°50'1312.8
2014-Jul-14 17:17N 36°43' W 128°04'5815.4
2014-Jul-14 13:32N 37°11' W 129°08'1919.9
2014-Jul-14 12:33N 37°20' W 129°29'2019.8
2014-Jul-14 11:32N 37°29' W 129°52'2019.9
2014-Jul-14 10:33N 37°39' W 130°13'2019.8
2014-Jul-14 09:33N 37°48' W 130°36'2019.7
2014-Jul-14 08:33N 37°56' W 130°58'2019.7
2014-Jul-14 07:33N 38°05' W 131°20'2019.7
2014-Jul-14 06:32N 38°15' W 131°43'1919.8
2014-Jul-14 05:33N 38°24' W 132°04'2020.2
2014-Jul-14 04:33N 38°33' W 132°28'8120.3
2014-Jul-14 00:33N 39°08' W 134°02'2020.3
2014-Jul-13 23:33N 39°17' W 134°26'2020.2
2014-Jul-13 22:33N 39°25' W 134°49'  
Track history (hours):
 
Tides and Currents Weather Stations Pressure Air Temp Water Temp Dewpoint Dewpoint Depression Visibility Wind Speed Wind Dir Waves Ship Positions

OOCL Long Beach

Last reported at 2014-Jul-21 15:10 UTC. Time now 2014-Jul-28 04:16 UTC.
Position N 35°45' W 125°52'.

Length 323 m; beam 42.8 m; draft 14.5 m.

Type: Cargo ship. MMSI: 477316000.

Date/timePositionNaut miles runAvg speedWind from/ knotsBaromVisibWave heightAir tempDewpointWater temp
2014-Jul-21 15:10N 35°45' W 125°52'1016.4
2014-Jul-21 14:33N 35°40' W 125°41'2216.3
2014-Jul-21 13:13N 35°30' W 125°17'2716.3
2014-Jul-21 11:31N 35°18' W 124°47'3216.3
2014-Jul-21 09:33N 35°03' W 124°12'1616.3
2014-Jul-21 08:33N 34°56' W 123°54'1616.1
2014-Jul-21 07:33N 34°49' W 123°37'1616.2
2014-Jul-21 06:34N 34°41' W 123°19'1616.1
2014-Jul-21 05:33N 34°34' W 123°02'1616.1
2014-Jul-21 04:32N 34°27' W 122°44'1616.1
2014-Jul-21 03:33N 34°19' W 122°27'1615.9
2014-Jul-21 02:33N 34°12' W 122°10'1615.5
2014-Jul-21 01:31N 34°05' W 121°53'1715.8
2014-Jul-21 00:28N 33°57' W 121°35'3716.1
2014-Jul-20 22:10N 33°41' W 120°55'5414.9
2014-Jul-20 18:32N 33°30' W 119°51'1210.4
2014-Jul-20 17:24N 33°32' W 119°37'910.7
2014-Jul-20 16:33N 33°34' W 119°27'1410.0
2014-Jul-20 15:07N 33°37' W 119°10'610.7
2014-Jul-20 14:33N 33°38' W 119°03'1110.8
2014-Jul-20 13:33N 33°38' W 118°50'3110.5
2014-Jul-20 10:33N 33°40' W 118°12'5 0.3
2014-Jul-19 17:32N 33°45' W 118°13'0 0.0
2014-Jul-19 16:14N 33°45' W 118°13'0 0.0
2014-Jul-19 15:29N 33°45' W 118°13'0 0.0
2014-Jul-19 14:32N 33°45' W 118°13'0 0.0
2014-Jul-19 13:32N 33°45' W 118°13'0 0.0
2014-Jul-19 12:32N 33°45' W 118°13'0 0.0
2014-Jul-19 11:32N 33°45' W 118°13'0 0.0
2014-Jul-19 10:32N 33°45' W 118°13'0 0.0
2014-Jul-19 09:23N 33°45' W 118°13'0 0.0
2014-Jul-19 08:26N 33°45' W 118°13'0 0.0
2014-Jul-19 06:32N 33°45' W 118°13'0 0.0
2014-Jul-19 05:32N 33°45' W 118°13'0 0.0
2014-Jul-19 04:32N 33°45' W 118°13'0 0.0
2014-Jul-19 03:20N 33°45' W 118°13'0 0.0
2014-Jul-19 02:32N 33°45' W 118°13'0 0.0
2014-Jul-19 00:14N 33°45' W 118°13'0 0.0
2014-Jul-18 23:32N 33°45' W 118°13'0 0.0
2014-Jul-18 19:32N 33°45' W 118°13'0 0.0
2014-Jul-18 04:26N 33°45' W 118°13'0 0.0
2014-Jul-18 03:32N 33°45' W 118°13'0 0.0
2014-Jul-18 02:32N 33°45' W 118°13'0 0.0
2014-Jul-17 05:29N 33°45' W 118°13'0 0.0
2014-Jul-17 04:11N 33°45' W 118°13'0 0.0
2014-Jul-17 03:32N 33°45' W 118°13'0 0.0
2014-Jul-17 02:26N 33°45' W 118°13'0 0.0
2014-Jul-17 01:29N 33°45' W 118°13'0 0.0
2014-Jul-17 00:20N 33°45' W 118°13'0 0.0
2014-Jul-16 23:23N 33°45' W 118°13'0 0.0
2014-Jul-16 14:08N 33°45' W 118°13'0 0.0
2014-Jul-16 13:17N 33°45' W 118°13'0 0.6
2014-Jul-16 12:33N 33°45' W 118°13'9 7.9
2014-Jul-16 11:28N 33°36' W 118°15'910.0
2014-Jul-16 10:33N 33°37' W 118°26'10 9.8
2014-Jul-16 09:32N 33°37' W 118°38'10 9.9
2014-Jul-16 08:33N 33°38' W 118°49'1010.0
2014-Jul-16 07:33N 33°38' W 119°01'1110.4
2014-Jul-16 06:28N 33°36' W 119°14'910.1
2014-Jul-16 05:33N 33°34' W 119°25'10 9.6
2014-Jul-16 04:33N 33°33' W 119°37'1110.2
2014-Jul-16 03:26N 33°31' W 119°50'910.1
2014-Jul-16 02:33N 33°29' W 120°01'1412.7
2014-Jul-16 01:26N 33°30' W 120°18'3611.5
2014-Jul-15 22:17N 33°42' W 120°59'3612.8
2014-Jul-15 19:27N 33°59' W 121°38'1613.1
2014-Jul-15 18:14N 34°05' W 121°55'913.2
2014-Jul-15 17:33N 34°09' W 122°05'1413.3
2014-Jul-15 16:31N 34°16' W 122°19'1313.6
2014-Jul-15 15:33N 34°22' W 122°33'1513.1
2014-Jul-15 14:24N 34°29' W 122°50'1213.5
2014-Jul-15 13:30N 34°34' W 123°03'2714.1
2014-Jul-15 11:33N 34°47' W 123°33'1514.1
2014-Jul-15 10:29N 34°53' W 123°49'1313.8
2014-Jul-15 09:33N 34°59' W 124°03'2713.8
2014-Jul-15 07:33N 35°12' W 124°33'2713.7
2014-Jul-15 05:33N 35°24' W 125°03'1413.7
2014-Jul-15 04:33N 35°30' W 125°18'1414.0
2014-Jul-15 03:33N 35°37' W 125°33'1413.9
2014-Jul-15 02:33N 35°43' W 125°48'1614.0
2014-Jul-15 01:25N 35°50' W 126°06'1413.7
2014-Jul-15 00:22N 35°56' W 126°22'1513.8
2014-Jul-14 23:19N 36°03' W 126°38'1113.9
2014-Jul-14 22:33N 36°09' W 126°49'1713.9
2014-Jul-14 21:18N 36°17' W 127°08'1013.9
2014-Jul-14 20:34N 36°23' W 127°19'2812.8
2014-Jul-14 18:20N 36°36' W 127°50'1312.8
2014-Jul-14 17:17N 36°43' W 128°04'5815.4
2014-Jul-14 13:32N 37°11' W 129°08'1919.9
2014-Jul-14 12:33N 37°20' W 129°29'2019.8
2014-Jul-14 11:32N 37°29' W 129°52'2019.9
2014-Jul-14 10:33N 37°39' W 130°13'2019.8
2014-Jul-14 09:33N 37°48' W 130°36'2019.7
2014-Jul-14 08:33N 37°56' W 130°58'2019.7
2014-Jul-14 07:33N 38°05' W 131°20'2019.7
2014-Jul-14 06:32N 38°15' W 131°43'1919.8
2014-Jul-14 05:33N 38°24' W 132°04'2020.2
2014-Jul-14 04:33N 38°33' W 132°28'8120.3
2014-Jul-14 00:33N 39°08' W 134°02'2020.3
2014-Jul-13 23:33N 39°17' W 134°26'2020.2
2014-Jul-13 22:33N 39°25' W 134°49'  

Dump ship's entire track history